GMP weather

Gimpo International Airport
Seoul, Seoul Teugbyeolsi, South Korea

Public forecast

Using degrees Celsius for public forecast. Weather courtesy of forecast.io.

METAR (pilot weather report)

Retrieved 2018/05/24 14:00 UTC (57 minutes ago):

RKSS 241400Z 19005KT CAVOK 17/09 Q1010 NOSIG

TAF (pilot weather forecast)

Retrieved 2018/05/24 12:00 UTC (3 hours ago):

TAF RKSS 241100Z 2412/2518 24008KT CAVOK TN13/2421Z TX25/2506Z BECMG 2414/2415 16006KT BECMG 2501/2502 25007KT BECMG 2511/2512 18005KT BECMG 2513/2514 03006KT 6000 NSC